PADU Airport Information

Runway Information
Runway 12 Length 3900 ft width 100 ft
Elevation 22 ft Threshold 100 ft Heading 136
Runway 30 Length 3900 ft Width 100 ft
Elevation 13 ft Threshold 101 ft Heading 316
Airport Frequencies
Type AWOS Name AWOS 3 Frequency 125.8 MHZ
Type CNTR Name ANCHORAGE Frequency 121.4 MHZ
Type CTAF Name CTAF Frequency 122.6 MHZ
Type FSS Name COLD BAY R Frequency 122.6 MHZ
Type MISC Name DUTCH WX Frequency 129.5 MHZ
Airport Navaids
Type NDB-DME Name Dutch Harbor Frequency 283 KHZ
Airport Weather Information & NOTAM
ADDS - METARS form results

(0728 UTC 24 July 2021)
Data provider http://aviationweather.gov/metar/data/
 
METAR text: PADU 240656Z AUTO 00000KT 10SM OVC009 10/08 A3017 RMK AO2 SLP219 T01000083 $
Conditions at: PADU (DUTCH HARBOR , AK, US) observed 0656 UTC 24 July 2021
Temperature: 10.0°C (50°F)
Dewpoint: 8.3°C (47°F) [RH = 89%]
Pressure (altimeter): 30.17 inches Hg (1021.8 mb)
[Sea-level pressure: 1021.9 mb]
Winds: calm
Visibility: 10 or more miles (16+ km)
Ceiling: 900 feet AGL
Clouds: overcast cloud deck at 900 feet AGL
Weather:
SOME DATA ABOVE MAY BE INACCURATE!!!
"$" is an indication the sensor requires maintenance

METAR text: PADU 240633Z AUTO 00000KT 10SM OVC009 10/09 A3017 RMK AO2 $
Conditions at: PADU (DUTCH HARBOR , AK, US) observed 0633 UTC 24 July 2021
Temperature: 10.0°C (50°F)
Dewpoint: 9.0°C (48°F) [RH = 93%]
Pressure (altimeter): 30.17 inches Hg (1021.8 mb)
Winds: calm
Visibility: 10 or more miles (16+ km)
Ceiling: 900 feet AGL
Clouds: overcast cloud deck at 900 feet AGL
Weather:
SOME DATA ABOVE MAY BE INACCURATE!!!
"$" is an indication the sensor requires maintenance

Forecast for: PADU (DUTCH HARBOR , AK, US)
Text: PADU 240539Z 2406/2506 VRB05KT P6SM BKN015 BKN025
Forecast period: 0600 UTC 24 July 2021 to 0600 UTC 25 July 2021
Forecast type: FROM: standard forecast or significant change
Winds: variable direction winds at 6 MPH (5 knots; 2.6 m/s)
Visibility: 6 or more miles (10+ km)
Ceiling: 1500 feet AGL
Clouds: broken clouds at 1500 feet AGL
broken clouds at 2500 feet AGL
Weather: no significant weather forecast for this period